createdAt,value
2019-05-05T00:01:25.019Z,8.93
2019-05-05T00:04:10.612Z,8.86
2019-05-05T00:06:38.685Z,9.02
2019-05-05T00:09:07.135Z,8.97
2019-05-05T00:11:49.952Z,8.90
2019-05-05T00:14:25.348Z,8.92
2019-05-05T00:17:09.338Z,8.87
2019-05-05T00:19:37.835Z,8.63
2019-05-05T00:22:05.751Z,8.76
2019-05-05T00:24:35.094Z,8.72
2019-05-05T00:27:04.307Z,8.72
2019-05-05T00:29:34.600Z,8.66
2019-05-05T00:32:02.354Z,8.62
2019-05-05T00:34:30.559Z,8.55
2019-05-05T00:36:58.354Z,8.50
2019-05-05T00:39:26.393Z,8.52
2019-05-05T00:41:55.478Z,8.54
2019-05-05T00:44:24.747Z,8.52
2019-05-05T00:47:18.403Z,8.49
2019-05-05T00:49:49.417Z,8.64
2019-05-05T00:52:17.543Z,8.56
2019-05-05T00:54:45.495Z,8.57
2019-05-05T00:57:14.995Z,8.67
2019-05-05T00:59:45.119Z,8.58
2019-05-05T01:02:47.715Z,8.63
2019-05-05T01:05:34.443Z,8.54
2019-05-05T01:08:05.231Z,8.59
2019-05-05T01:10:35.276Z,8.57
2019-05-05T01:13:04.750Z,8.53
2019-05-05T01:15:34.549Z,8.64
2019-05-05T01:18:04.747Z,8.56
2019-05-05T01:20:34.310Z,8.60
2019-05-05T01:23:04.455Z,8.49
2019-05-05T01:25:34.591Z,8.48
2019-05-05T01:28:02.499Z,8.47
2019-05-05T01:30:32.271Z,8.35
2019-05-05T01:33:07.126Z,8.43
2019-05-05T01:35:35.313Z,8.38
2019-05-05T01:38:09.068Z,8.38
2019-05-05T01:40:54.794Z,8.36
2019-05-05T01:43:22.689Z,8.36
2019-05-05T01:45:51.765Z,8.27
2019-05-05T01:48:19.823Z,8.38
2019-05-05T01:50:47.911Z,8.29
2019-05-05T01:53:16.021Z,8.21
2019-05-05T01:55:45.184Z,8.24
2019-05-05T01:58:15.292Z,8.25
2019-05-05T02:00:45.211Z,8.18
2019-05-05T02:03:14.764Z,8.01
2019-05-05T02:05:45.135Z,8.13
2019-05-05T02:08:15.189Z,8.35
2019-05-05T02:10:45.191Z,8.16
2019-05-05T02:13:12.952Z,8.18
2019-05-05T02:15:40.802Z,8.26
2019-05-05T02:18:09.102Z,8.13
2019-05-05T02:20:49.796Z,8.01
2019-05-05T02:23:17.901Z,7.95
2019-05-05T02:25:45.857Z,7.97
2019-05-05T02:28:14.968Z,8.03
2019-05-05T02:30:56.545Z,7.98
2019-05-05T02:33:26.123Z,7.94
2019-05-05T02:35:55.608Z,7.90
2019-05-05T02:38:26.146Z,7.88
2019-05-05T02:40:54.855Z,7.87
2019-05-05T02:43:25.049Z,8.03
2019-05-05T02:46:18.981Z,7.99
2019-05-05T02:48:48.987Z,7.94
2019-05-05T02:51:17.067Z,7.75
2019-05-05T02:53:47.495Z,7.86
2019-05-05T02:56:20.851Z,7.84
2019-05-05T02:58:51.297Z,7.70
2019-05-05T03:01:38.870Z,7.60
2019-05-05T03:04:07.278Z,7.40
2019-05-05T03:06:37.896Z,7.45
2019-05-05T03:09:06.363Z,7.65
2019-05-05T03:11:35.232Z,7.48
2019-05-05T03:14:04.165Z,7.48
2019-05-05T03:16:36.073Z,7.41
2019-05-05T03:19:04.489Z,7.28
2019-05-05T03:21:33.521Z,7.24
2019-05-05T03:24:03.698Z,7.11
2019-05-05T03:26:33.885Z,7.15
2019-05-05T03:29:04.770Z,7.15
2019-05-05T03:31:35.185Z,7.11
2019-05-05T03:34:05.855Z,6.96
2019-05-05T03:36:33.993Z,6.99
2019-05-05T03:39:05.137Z,7.28
2019-05-05T03:41:39.525Z,7.10
2019-05-05T03:44:14.115Z,6.96
2019-05-05T03:46:43.853Z,6.94
2019-05-05T03:49:13.988Z,6.99
2019-05-05T03:51:43.866Z,7.07
2019-05-05T03:54:14.450Z,7.02
2019-05-05T03:56:44.109Z,6.95
2019-05-05T03:59:14.110Z,6.96
2019-05-05T04:01:51.274Z,6.72
2019-05-05T04:04:24.516Z,6.83
2019-05-05T04:06:54.002Z,6.85
2019-05-05T04:09:24.315Z,6.91
2019-05-05T04:11:53.991Z,6.77
2019-05-05T04:14:24.740Z,6.96
2019-05-05T04:17:26.306Z,6.73
2019-05-05T04:19:54.955Z,6.65
2019-05-05T04:22:23.807Z,6.79
2019-05-05T04:24:53.971Z,6.75
2019-05-05T04:27:23.793Z,6.72
2019-05-05T04:29:54.310Z,6.70
2019-05-05T04:32:21.960Z,6.67
2019-05-05T04:34:51.055Z,6.46
2019-05-05T04:37:18.947Z,6.54
2019-05-05T04:39:46.838Z,6.42
2019-05-05T04:42:14.856Z,6.46
2019-05-05T04:44:44.932Z,6.39
2019-05-05T04:47:19.275Z,6.26
2019-05-05T04:50:06.844Z,6.44
2019-05-05T04:52:35.103Z,6.55
2019-05-05T04:55:03.905Z,6.50
2019-05-05T04:57:32.259Z,6.37
2019-05-05T05:00:00.203Z,6.50
2019-05-05T05:02:56.294Z,6.46
2019-05-05T05:05:28.764Z,6.26
2019-05-05T05:07:58.100Z,6.32
2019-05-05T05:10:26.297Z,6.10
2019-05-05T05:12:54.499Z,6.37
2019-05-05T05:15:23.914Z,6.37
2019-05-05T05:17:59.305Z,6.43
2019-05-05T05:20:27.649Z,6.38
2019-05-05T05:22:55.732Z,6.10
2019-05-05T05:25:24.849Z,6.14
2019-05-05T05:27:53.637Z,6.23
2019-05-05T05:30:24.121Z,6.29
2019-05-05T05:32:53.862Z,6.35
2019-05-05T05:35:24.220Z,6.34
2019-05-05T05:37:53.992Z,6.43
2019-05-05T05:40:34.083Z,6.48
2019-05-05T05:43:04.661Z,6.58
2019-05-05T05:46:01.398Z,6.40
2019-05-05T05:48:53.929Z,6.50
2019-05-05T05:51:23.803Z,6.62
2019-05-05T05:53:51.971Z,6.50
2019-05-05T05:56:20.068Z,6.46
2019-05-05T05:58:48.254Z,6.47
2019-05-05T06:01:16.278Z,6.71
2019-05-05T06:03:44.499Z,6.43
2019-05-05T06:06:13.811Z,6.46
2019-05-05T06:08:43.822Z,6.32
2019-05-05T06:11:13.537Z,6.48
2019-05-05T06:13:41.023Z,6.37
2019-05-05T06:16:09.116Z,6.39
2019-05-05T06:18:38.096Z,6.41
2019-05-05T06:21:06.094Z,6.20
2019-05-05T06:23:34.591Z,6.39
2019-05-05T06:26:06.959Z,6.50
2019-05-05T06:28:34.229Z,6.44
2019-05-05T06:31:02.242Z,6.50
2019-05-05T06:33:30.201Z,6.46
2019-05-05T06:35:57.832Z,6.57
2019-05-05T06:38:25.891Z,6.57
2019-05-05T06:41:14.668Z,6.42
2019-05-05T06:44:05.147Z,6.39
2019-05-05T06:46:53.769Z,6.58
2019-05-05T06:49:23.790Z,6.41
2019-05-05T06:51:51.926Z,6.47
2019-05-05T06:54:19.785Z,6.46
2019-05-05T06:56:47.900Z,6.23
2019-05-05T06:59:15.961Z,6.40
2019-05-05T07:01:44.334Z,6.46
2019-05-05T07:04:13.946Z,6.30
2019-05-05T07:06:53.612Z,6.45
2019-05-05T07:09:13.868Z,6.53
2019-05-05T07:11:43.637Z,6.70
2019-05-05T07:14:14.126Z,6.72
2019-05-05T07:16:43.704Z,6.82
2019-05-05T07:19:11.857Z,6.70
2019-05-05T07:21:39.771Z,7.02
2019-05-05T07:24:07.576Z,7.13
2019-05-05T07:26:35.977Z,7.32
2019-05-05T07:29:04.638Z,7.39
2019-05-05T07:31:34.258Z,7.76
2019-05-05T07:34:02.274Z,7.98
2019-05-05T07:36:49.801Z,7.94
2019-05-05T07:39:17.746Z,7.89
2019-05-05T07:41:46.026Z,7.99
2019-05-05T07:44:25.743Z,8.02
2019-05-05T07:46:44.114Z,7.91
2019-05-05T07:49:13.932Z,7.96
2019-05-05T07:51:43.979Z,7.93
2019-05-05T07:54:14.312Z,7.98
2019-05-05T07:56:44.212Z,8.17
2019-05-05T07:59:14.558Z,7.92
2019-05-05T08:01:45.834Z,7.95
2019-05-05T08:04:13.667Z,7.70
2019-05-05T08:06:42.007Z,7.85
2019-05-05T08:09:09.936Z,8.06
2019-05-05T08:11:38.005Z,8.10
2019-05-05T08:14:06.187Z,8.18
2019-05-05T08:16:57.055Z,8.60
2019-05-05T08:19:44.180Z,8.72
2019-05-05T08:22:14.164Z,8.81
2019-05-05T08:25:04.341Z,8.81
2019-05-05T08:27:58.037Z,9.09
2019-05-05T08:30:45.950Z,9.39
2019-05-05T08:33:14.223Z,9.45
2019-05-05T08:35:42.189Z,9.64
2019-05-05T08:38:10.192Z,9.57
2019-05-05T08:40:38.387Z,9.79
2019-05-05T08:43:06.513Z,10.06
2019-05-05T08:45:35.149Z,9.71
2019-05-05T08:48:04.928Z,9.91
2019-05-05T08:50:34.827Z,9.90
2019-05-05T08:53:04.473Z,9.83
2019-05-05T08:55:33.940Z,9.52
2019-05-05T08:58:04.373Z,9.79
2019-05-05T09:00:33.820Z,9.63
2019-05-05T09:03:03.779Z,9.69
2019-05-05T09:05:34.368Z,9.90
2019-05-05T09:08:04.544Z,9.89
2019-05-05T09:10:34.274Z,10.19
2019-05-05T09:13:03.874Z,10.11
2019-05-05T09:15:33.667Z,10.10
2019-05-05T09:18:01.888Z,9.72
2019-05-05T09:20:29.950Z,9.98
2019-05-05T09:22:57.904Z,9.90
2019-05-05T09:25:45.407Z,9.88
2019-05-05T09:28:19.827Z,9.65
2019-05-05T09:30:48.362Z,9.84
2019-05-05T09:33:18.305Z,9.81
2019-05-05T09:35:46.265Z,9.83
2019-05-05T09:38:16.931Z,9.68
2019-05-05T09:40:45.056Z,9.66
2019-05-05T09:43:14.711Z,9.95
2019-05-05T09:45:44.144Z,10.18
2019-05-05T09:48:13.969Z,10.09
2019-05-05T09:50:43.744Z,10.04
2019-05-05T09:53:14.350Z,9.83
2019-05-05T09:55:44.086Z,9.66
2019-05-05T09:58:13.736Z,9.80
2019-05-05T10:00:44.228Z,9.79
2019-05-05T10:03:14.310Z,9.87
2019-05-05T10:05:42.091Z,9.79
2019-05-05T10:08:10.000Z,9.68
2019-05-05T10:10:38.278Z,9.69
2019-05-05T10:13:06.267Z,9.77
2019-05-05T10:15:34.299Z,9.92
2019-05-05T10:18:03.499Z,9.77
2019-05-05T10:20:34.383Z,9.67
2019-05-05T10:23:02.811Z,9.54
2019-05-05T10:25:44.658Z,9.67
2019-05-05T10:28:13.638Z,9.48
2019-05-05T10:30:41.787Z,9.35
2019-05-05T10:33:09.811Z,9.38
2019-05-05T10:35:37.680Z,9.45
2019-05-05T10:38:05.729Z,9.66
2019-05-05T10:40:34.179Z,9.61
2019-05-05T10:43:04.180Z,9.57
2019-05-05T10:45:32.228Z,9.43
2019-05-05T10:48:00.284Z,9.62
2019-05-05T10:50:28.185Z,9.37
2019-05-05T10:52:56.099Z,9.39
2019-05-05T10:55:24.301Z,9.65
2019-05-05T10:57:54.260Z,9.60
2019-05-05T11:00:38.331Z,9.48
2019-05-05T11:03:06.256Z,9.71
2019-05-05T11:05:34.051Z,9.57
2019-05-05T11:08:04.369Z,9.55
2019-05-05T11:10:33.906Z,9.41
2019-05-05T11:13:02.027Z,9.27
2019-05-05T11:15:30.177Z,9.27
2019-05-05T11:17:58.286Z,8.95
2019-05-05T11:20:26.707Z,9.05
2019-05-05T11:22:54.837Z,8.83
2019-05-05T11:25:24.271Z,9.08
2019-05-05T11:27:54.146Z,9.44
2019-05-05T11:30:34.005Z,9.62
2019-05-05T11:33:37.100Z,9.53
2019-05-05T11:36:17.731Z,9.33
2019-05-05T11:38:45.964Z,9.41
2019-05-05T11:41:14.536Z,9.24
2019-05-05T11:43:43.251Z,9.35
2019-05-05T11:46:11.395Z,9.14
2019-05-05T11:48:39.455Z,9.05
2019-05-05T11:51:07.555Z,8.83
2019-05-05T11:53:35.541Z,8.70
2019-05-05T11:56:04.171Z,8.78
2019-05-05T11:58:34.096Z,9.00
2019-05-05T12:01:03.760Z,9.22
2019-05-05T12:03:34.006Z,9.18
2019-05-05T12:06:04.029Z,9.16
2019-05-05T12:08:31.857Z,9.25
2019-05-05T12:11:01.198Z,9.17
2019-05-05T12:13:29.102Z,9.29
2019-05-05T12:16:01.332Z,8.98
2019-05-05T12:18:29.347Z,9.00
2019-05-05T12:20:57.500Z,9.16
2019-05-05T12:23:25.404Z,8.95
2019-05-05T12:26:15.763Z,8.90
2019-05-05T12:29:03.399Z,9.02
2019-05-05T12:31:31.517Z,9.04
2019-05-05T12:33:59.688Z,8.98
2019-05-05T12:36:27.349Z,8.98
2019-05-05T12:38:55.611Z,8.91
2019-05-05T12:41:24.114Z,8.77
2019-05-05T12:43:54.853Z,8.54
2019-05-05T12:47:00.217Z,8.76
2019-05-05T12:49:29.479Z,8.78
2019-05-05T12:51:57.386Z,8.57
2019-05-05T12:54:25.663Z,8.55
2019-05-05T12:56:53.960Z,8.59
2019-05-05T12:59:25.074Z,8.60
2019-05-05T13:01:54.679Z,8.70
2019-05-05T13:04:24.544Z,8.78
2019-05-05T13:06:54.068Z,8.71
2019-05-05T13:09:24.391Z,8.87
2019-05-05T13:11:54.127Z,8.89
2019-05-05T13:14:22.378Z,8.97
2019-05-05T13:16:53.926Z,9.10
2019-05-05T13:19:29.924Z,8.98
2019-05-05T13:22:30.533Z,8.47
2019-05-05T13:25:10.003Z,8.61
2019-05-05T13:27:40.404Z,8.71
2019-05-05T13:30:08.626Z,8.75
2019-05-05T13:32:38.034Z,8.72
2019-05-05T13:35:06.587Z,8.78
2019-05-05T13:37:34.542Z,8.67
2019-05-05T13:40:04.483Z,8.55
2019-05-05T13:42:32.966Z,8.65
2019-05-05T13:45:18.747Z,8.45
2019-05-05T13:47:47.040Z,8.51
2019-05-05T13:50:24.620Z,8.53
2019-05-05T13:52:52.804Z,8.61
2019-05-05T13:55:20.876Z,8.32
2019-05-05T13:57:48.880Z,8.52
2019-05-05T14:00:18.526Z,8.52
2019-05-05T14:02:47.767Z,8.58
2019-05-05T14:05:15.950Z,8.50
2019-05-05T14:07:44.419Z,8.58
2019-05-05T14:10:14.402Z,8.41
2019-05-05T14:12:43.748Z,8.46
2019-05-05T14:15:17.041Z,8.50
2019-05-05T14:17:46.400Z,8.51
2019-05-05T14:20:16.722Z,8.55
2019-05-05T14:22:44.953Z,8.69
2019-05-05T14:25:17.558Z,8.45
2019-05-05T14:27:45.570Z,8.60
2019-05-05T14:30:37.719Z,8.83
2019-05-05T14:33:08.028Z,9.03
2019-05-05T14:36:00.934Z,8.79
2019-05-05T14:38:36.396Z,8.77
2019-05-05T14:41:04.279Z,8.48
2019-05-05T14:43:34.397Z,8.61
2019-05-05T14:46:03.727Z,8.64
2019-05-05T14:48:34.046Z,8.69
2019-05-05T14:51:03.974Z,8.70
2019-05-05T14:53:34.690Z,8.71
2019-05-05T14:56:04.458Z,8.78
2019-05-05T14:58:33.105Z,8.64
2019-05-05T15:01:01.135Z,8.25
2019-05-05T15:03:29.408Z,8.25
2019-05-05T15:06:07.964Z,8.41
2019-05-05T15:08:54.492Z,8.24
2019-05-05T15:11:50.143Z,8.17
2019-05-05T15:14:18.048Z,8.26
2019-05-05T15:16:46.457Z,8.32
2019-05-05T15:19:14.803Z,8.32
2019-05-05T15:21:44.295Z,8.30
2019-05-05T15:24:13.846Z,8.40
2019-05-05T15:26:51.250Z,8.29
2019-05-05T15:29:11.969Z,8.35
2019-05-05T15:31:39.951Z,8.13
2019-05-05T15:34:08.334Z,8.21
2019-05-05T15:36:36.873Z,8.23
2019-05-05T15:39:07.468Z,8.21
2019-05-05T15:41:35.572Z,8.30
2019-05-05T15:44:04.088Z,8.41
2019-05-05T15:46:33.676Z,8.22
2019-05-05T15:49:04.022Z,7.97
2019-05-05T15:51:31.850Z,7.90
2019-05-05T15:54:00.001Z,7.86
2019-05-05T15:56:27.710Z,7.96
2019-05-05T15:58:55.787Z,7.84
2019-05-05T16:01:23.851Z,7.78
2019-05-05T16:03:51.940Z,7.94
2019-05-05T16:06:20.203Z,7.94
2019-05-05T16:08:48.356Z,7.87
2019-05-05T16:11:16.229Z,7.84
2019-05-05T16:13:44.284Z,7.97
2019-05-05T16:16:37.980Z,7.89
2019-05-05T16:19:34.639Z,7.94
2019-05-05T16:22:06.129Z,7.85
2019-05-05T16:24:36.719Z,7.58
2019-05-05T16:27:18.352Z,7.65
2019-05-05T16:29:34.689Z,7.72
2019-05-05T16:32:05.453Z,7.79
2019-05-05T16:34:33.688Z,7.66
2019-05-05T16:37:03.989Z,7.65
2019-05-05T16:39:33.703Z,7.58
2019-05-05T16:42:01.955Z,7.52
2019-05-05T16:44:29.795Z,7.49
2019-05-05T16:46:57.879Z,7.49
2019-05-05T16:49:27.614Z,7.45
2019-05-05T16:52:07.029Z,7.48
2019-05-05T16:54:40.532Z,7.39
2019-05-05T16:57:08.709Z,7.40
2019-05-05T16:59:36.840Z,7.39
2019-05-05T17:02:04.927Z,7.39
2019-05-05T17:04:33.179Z,7.36
2019-05-05T17:07:01.318Z,7.25
2019-05-05T17:09:29.015Z,7.25
2019-05-05T17:12:08.692Z,7.21
2019-05-05T17:14:59.520Z,7.18
2019-05-05T17:17:36.924Z,7.18
2019-05-05T17:20:07.808Z,7.24
2019-05-05T17:22:39.838Z,7.27
2019-05-05T17:25:09.137Z,7.46
2019-05-05T17:27:47.805Z,7.56
2019-05-05T17:30:07.500Z,8.08
2019-05-05T17:32:35.577Z,8.05
2019-05-05T17:35:03.909Z,8.18
2019-05-05T17:37:33.545Z,8.01
2019-05-05T17:40:33.877Z,8.08
2019-05-05T17:43:24.710Z,8.39
2019-05-05T17:46:01.472Z,8.33
2019-05-05T17:48:36.181Z,8.48
2019-05-05T17:51:31.365Z,8.44
2019-05-05T17:54:18.938Z,8.62
2019-05-05T17:56:47.009Z,8.55
2019-05-05T17:59:15.069Z,8.82
2019-05-05T18:01:44.225Z,8.47
2019-05-05T18:04:13.594Z,8.64
2019-05-05T18:06:46.492Z,8.60
2019-05-05T18:09:17.622Z,8.82
2019-05-05T18:12:05.194Z,9.00
2019-05-05T18:14:33.683Z,8.67
2019-05-05T18:17:04.221Z,8.37
2019-05-05T18:19:33.991Z,8.00
2019-05-05T18:22:02.262Z,7.78
2019-05-05T18:24:30.419Z,7.64
2019-05-05T18:26:58.370Z,7.43
2019-05-05T18:29:26.462Z,7.43
2019-05-05T18:31:54.537Z,7.14
2019-05-05T18:34:23.619Z,7.11
2019-05-05T18:36:54.216Z,6.92
2019-05-05T18:39:21.707Z,7.02
2019-05-05T18:41:59.939Z,6.99
2019-05-05T18:44:40.501Z,6.84
2019-05-05T18:47:12.836Z,6.75
2019-05-05T18:49:40.540Z,6.66
2019-05-05T18:52:08.933Z,6.71
2019-05-05T18:54:37.993Z,6.74
2019-05-05T18:57:07.337Z,6.65
2019-05-05T18:59:35.596Z,6.62
2019-05-05T19:02:14.430Z,6.66
2019-05-05T19:05:04.881Z,6.76
2019-05-05T19:07:53.024Z,6.81
2019-05-05T19:10:11.915Z,6.82
2019-05-05T19:12:39.803Z,6.98
2019-05-05T19:15:07.797Z,6.82
2019-05-05T19:17:35.736Z,6.72
2019-05-05T19:20:10.115Z,6.69
2019-05-05T19:22:38.038Z,6.57
2019-05-05T19:25:16.446Z,6.72
2019-05-05T19:27:45.407Z,6.65
2019-05-05T19:30:14.292Z,6.67
2019-05-05T19:32:43.747Z,6.71
2019-05-05T19:35:11.877Z,6.75
2019-05-05T19:37:39.502Z,6.85
2019-05-05T19:40:07.484Z,6.97
2019-05-05T19:42:35.088Z,6.88
2019-05-05T19:45:04.256Z,6.82
2019-05-05T19:47:33.995Z,6.76
2019-05-05T19:50:08.624Z,6.84
2019-05-05T19:52:36.633Z,6.98
2019-05-05T19:55:05.166Z,6.84
2019-05-05T19:57:33.664Z,6.87
2019-05-05T20:00:04.042Z,6.93
2019-05-05T20:02:34.163Z,6.88
2019-05-05T20:05:04.055Z,6.88
2019-05-05T20:07:31.889Z,7.11
2019-05-05T20:09:59.893Z,7.04
2019-05-05T20:12:27.561Z,7.01
2019-05-05T20:14:57.539Z,6.93
2019-05-05T20:17:33.840Z,6.94
2019-05-05T20:20:04.322Z,7.05
2019-05-05T20:22:32.024Z,7.03
2019-05-05T20:25:00.726Z,7.31
2019-05-05T20:27:28.939Z,7.27
2019-05-05T20:29:57.208Z,7.21
2019-05-05T20:32:34.210Z,7.24
2019-05-05T20:35:30.817Z,7.18
2019-05-05T20:38:14.261Z,6.88
2019-05-05T20:40:44.366Z,6.99
2019-05-05T20:43:14.359Z,6.97
2019-05-05T20:45:44.249Z,7.07
2019-05-05T20:48:12.579Z,6.96
2019-05-05T20:50:40.588Z,7.03
2019-05-05T20:53:08.936Z,7.13
2019-05-05T20:55:37.122Z,7.23
2019-05-05T20:58:05.484Z,7.11
2019-05-05T21:00:34.717Z,6.99
2019-05-05T21:03:04.698Z,6.99
2019-05-05T21:05:34.341Z,7.01
2019-05-05T21:08:04.781Z,7.16
2019-05-05T21:10:34.739Z,7.05
2019-05-05T21:13:03.721Z,7.14
2019-05-05T21:15:34.059Z,7.15
2019-05-05T21:18:02.269Z,7.04
2019-05-05T21:20:30.652Z,7.01
2019-05-05T21:23:14.277Z,7.03
2019-05-05T21:25:45.345Z,7.05
2019-05-05T21:28:14.593Z,7.02
2019-05-05T21:30:42.521Z,7.11
2019-05-05T21:33:10.759Z,7.12
2019-05-05T21:35:38.740Z,7.05
2019-05-05T21:38:06.984Z,7.03
2019-05-05T21:40:35.335Z,7.20
2019-05-05T21:43:05.259Z,7.14
2019-05-05T21:45:34.707Z,7.05
2019-05-05T21:48:04.450Z,7.02
2019-05-05T21:50:38.054Z,7.04
2019-05-05T21:53:21.796Z,7.05
2019-05-05T21:56:21.395Z,6.87
2019-05-05T21:58:49.848Z,7.08
2019-05-05T22:01:19.674Z,6.95
2019-05-05T22:03:47.846Z,7.07
2019-05-05T22:06:16.171Z,7.20
2019-05-05T22:08:44.463Z,7.20
2019-05-05T22:11:14.616Z,7.05
2019-05-05T22:13:44.223Z,6.97
2019-05-05T22:16:13.615Z,6.90
2019-05-05T22:18:41.844Z,6.91
2019-05-05T22:21:29.470Z,7.11
2019-05-05T22:24:16.405Z,6.93
2019-05-05T22:26:44.657Z,6.97
2019-05-05T22:29:14.114Z,7.00
2019-05-05T22:31:43.189Z,7.03
2019-05-05T22:34:11.193Z,7.16
2019-05-05T22:36:39.255Z,7.03
2019-05-05T22:39:08.232Z,7.11
2019-05-05T22:41:36.662Z,7.18
2019-05-05T22:44:04.803Z,7.08
2019-05-05T22:46:34.748Z,7.09
2019-05-05T22:49:03.929Z,7.19
2019-05-05T22:51:33.748Z,7.20
2019-05-05T22:54:03.954Z,7.21
2019-05-05T22:56:33.746Z,7.10
2019-05-05T22:59:04.326Z,7.16
2019-05-05T23:01:32.286Z,7.04
2019-05-05T23:04:14.335Z,7.15
2019-05-05T23:06:46.227Z,7.17
2019-05-05T23:09:14.793Z,6.94
2019-05-05T23:11:44.449Z,6.79
2019-05-05T23:14:27.129Z,6.77
2019-05-05T23:17:16.464Z,6.68
2019-05-05T23:19:53.918Z,6.69
2019-05-05T23:22:28.540Z,6.52
2019-05-05T23:25:03.730Z,6.53
2019-05-05T23:27:46.317Z,6.53
2019-05-05T23:30:16.043Z,6.56
2019-05-05T23:32:45.197Z,6.49
2019-05-05T23:35:14.259Z,6.30
2019-05-05T23:37:42.340Z,6.45
2019-05-05T23:40:10.744Z,6.42
2019-05-05T23:42:38.851Z,6.39
2019-05-05T23:45:07.191Z,6.45
2019-05-05T23:47:35.389Z,6.48
2019-05-05T23:50:04.527Z,6.51
2019-05-05T23:52:34.842Z,6.37
2019-05-05T23:55:04.023Z,6.47
2019-05-05T23:57:32.439Z,6.41
